Time;durP1;ratioP1;P1;durP2;ratioP2;P2;SDS_P1;SDS_P2;PMS_P1;PMS_P2;Temp;Humidity;BMP_temperature;BMP_pressure;BME280_temperature;BME280_humidity;BME280_pressure;Samples;Min_cycle;Max_cycle;Signal;HPM_P1;HPM_P2
2021/04/24 00:01:54;;;;;;;4.20;1.40;;;20.70;29.70;;;;;;5091826;28;20024;-67
2021/04/24 00:04:20;;;;;;;2.92;1.00;;;20.70;29.70;;;;;;5093200;28;20551;-67
2021/04/24 00:06:45;;;;;;;2.53;1.20;;;20.70;29.70;;;;;;5093151;28;20024;-68
2021/04/24 00:09:11;;;;;;;2.92;1.20;;;20.70;29.70;;;;;;5093031;28;20031;-66
2021/04/24 00:11:36;;;;;;;3.35;1.23;;;20.70;29.60;;;;;;5091847;28;20024;-66
2021/04/24 00:14:03;;;;;;;4.82;1.38;;;20.70;29.60;;;;;;5093120;28;20028;-66
2021/04/24 00:16:28;;;;;;;3.22;1.30;;;20.70;29.60;;;;;;5092990;28;20036;-66
2021/04/24 00:18:54;;;;;;;3.25;1.00;;;20.70;29.60;;;;;;5092876;28;20070;-67
2021/04/24 00:21:19;;;;;;;4.05;1.27;;;20.70;29.60;;;;;;5092633;28;20032;-67
2021/04/24 00:23:45;;;;;;;3.45;1.30;;;20.70;29.60;;;;;;5092989;28;20032;-66
2021/04/24 00:26:11;;;;;;;4.07;1.30;;;20.70;29.60;;;;;;5091622;28;20028;-67
2021/04/24 00:28:37;;;;;;;3.40;1.42;;;20.70;29.50;;;;;;5092886;28;20027;-67
2021/04/24 00:31:03;;;;;;;2.70;0.90;;;20.70;29.50;;;;;;5092980;28;20024;-66
2021/04/24 00:33:29;;;;;;;3.28;1.10;;;20.70;29.60;;;;;;5092902;28;20073;-67
2021/04/24 00:35:54;;;;;;;2.30;1.00;;;20.70;29.60;;;;;;5092887;28;20430;-67
2021/04/24 00:38:20;;;;;;;3.13;1.00;;;20.70;29.60;;;;;;5092827;28;20032;-67
2021/04/24 00:40:46;;;;;;;3.33;1.00;;;20.70;29.50;;;;;;5093015;28;20031;-67
2021/04/24 00:43:18;;;;;;;2.78;1.20;;;20.60;29.50;;;;;;5092711;28;20040;-66
2021/04/24 00:45:43;;;;;;;4.10;1.15;;;20.60;29.50;;;;;;5092757;28;20029;-66
2021/04/24 00:48:10;;;;;;;3.50;1.20;;;20.60;29.50;;;;;;5091497;28;20024;-66
2021/04/24 00:50:39;;;;;;;1.98;0.93;;;20.60;29.60;;;;;;5092772;28;20483;-67
2021/04/24 00:53:06;;;;;;;3.22;1.10;;;20.60;29.50;;;;;;5091481;28;20020;-66
2021/04/24 00:55:33;;;;;;;4.35;1.15;;;20.60;29.50;;;;;;5091420;28;20036;-66
2021/04/24 00:58:00;;;;;;;3.75;1.40;;;20.60;29.50;;;;;;5092703;28;20038;-66
2021/04/24 01:00:26;;;;;;;2.45;1.13;;;20.60;29.50;;;;;;5092604;28;20066;-66
2021/04/24 01:02:52;;;;;;;2.28;1.10;;;20.60;29.50;;;;;;5091252;28;20496;-66
2021/04/24 01:05:40;;;;;;;6.53;1.50;;;20.60;29.40;;;;;;5091224;28;20045;-66
2021/04/24 01:08:08;;;;;;;2.38;1.00;;;20.50;29.50;;;;;;5091299;28;20028;-66
2021/04/24 01:10:36;;;;;;;2.42;1.15;;;20.50;29.50;;;;;;5092551;28;20077;-65
2021/04/24 01:13:03;;;;;;;3.90;1.30;;;20.50;29.50;;;;;;5092487;28;20040;-66
2021/04/24 01:15:28;;;;;;;2.08;0.88;;;20.50;29.50;;;;;;5092412;28;20379;-66
2021/04/24 01:17:54;;;;;;;2.78;1.20;;;20.50;29.50;;;;;;5092479;28;20475;-66
2021/04/24 01:20:20;;;;;;;3.28;1.00;;;20.50;29.40;;;;;;5092409;28;20095;-66
2021/04/24 01:22:47;;;;;;;2.08;1.00;;;20.50;29.50;;;;;;5090972;28;20056;-66
2021/04/24 01:25:15;;;;;;;4.82;1.48;;;20.50;29.50;;;;;;5092406;28;20024;-66
2021/04/24 01:27:41;;;;;;;3.25;1.08;;;20.50;29.50;;;;;;5091258;28;20031;-66
2021/04/24 01:30:09;;;;;;;2.35;1.02;;;20.50;29.50;;;;;;5094621;28;20024;-66
2021/04/24 01:32:35;;;;;;;3.00;1.08;;;20.50;29.50;;;;;;5095984;28;20036;-67
2021/04/24 01:35:01;;;;;;;2.85;1.13;;;20.50;29.50;;;;;;5096124;28;20391;-66
2021/04/24 01:37:26;;;;;;;3.67;1.45;;;20.50;29.50;;;;;;5095915;28;20027;-66
2021/04/24 01:39:52;;;;;;;3.83;1.10;;;20.50;29.50;;;;;;5096095;28;20077;-66
2021/04/24 01:42:17;;;;;;;2.05;0.95;;;20.50;29.50;;;;;;5096012;28;20114;-65
2021/04/24 01:44:43;;;;;;;4.13;1.30;;;20.50;29.50;;;;;;5095697;28;20026;-66
2021/04/24 01:47:08;;;;;;;2.45;0.90;;;20.50;29.50;;;;;;5094461;28;20035;-66
2021/04/24 01:49:34;;;;;;;2.95;1.35;;;20.50;29.50;;;;;;5095731;28;20028;-66
2021/04/24 01:51:59;;;;;;;2.38;0.85;;;20.50;29.50;;;;;;5095667;28;20426;-66
2021/04/24 01:54:25;;;;;;;3.15;1.05;;;20.50;29.50;;;;;;5095562;28;20047;-65
2021/04/24 01:56:57;;;;;;;2.38;1.00;;;20.50;29.50;;;;;;5095529;28;20071;-67
2021/04/24 01:59:26;;;;;;;3.78;1.17;;;20.50;29.50;;;;;;5095526;28;20047;-66
2021/04/24 02:01:53;;;;;;;1.85;0.90;;;20.50;29.50;;;;;;5094117;28;20028;-66
2021/04/24 02:04:21;;;;;;;3.72;0.80;;;20.50;29.50;;;;;;5095342;28;20024;-66
2021/04/24 02:06:47;;;;;;;4.60;1.30;;;20.50;29.50;;;;;;5095397;28;20491;-66
2021/04/24 02:09:14;;;;;;;5.38;1.20;;;20.50;29.50;;;;;;5095297;28;20036;-66
2021/04/24 02:12:04;;;;;;;3.72;1.23;;;20.50;29.50;;;;;;5095164;28;20024;-66
2021/04/24 02:14:41;;;;;;;2.63;1.08;;;20.50;29.60;;;;;;5095217;28;20073;-65
2021/04/24 02:17:09;;;;;;;3.60;1.25;;;20.40;29.50;;;;;;5095188;28;20023;-65
2021/04/24 02:19:46;;;;;;;2.28;1.00;;;20.50;29.60;;;;;;5095063;28;20092;-66
2021/04/24 02:22:12;;;;;;;3.45;1.02;;;20.40;29.50;;;;;;5094770;28;20394;-67
2021/04/24 02:24:39;;;;;;;3.45;0.90;;;20.40;29.60;;;;;;5095303;28;20021;-67
2021/04/24 02:27:06;;;;;;;2.88;0.90;;;20.40;29.60;;;;;;5095307;28;20088;-67
2021/04/24 02:29:32;;;;;;;2.35;1.10;;;20.40;29.60;;;;;;5095063;28;20035;-66
2021/04/24 02:31:58;;;;;;;2.58;1.10;;;20.40;29.50;;;;;;5094977;28;20035;-67
2021/04/24 02:34:24;;;;;;;2.42;0.82;;;20.40;29.60;;;;;;5095293;28;20020;-68
2021/04/24 02:36:49;;;;;;;3.38;1.00;;;20.40;29.60;;;;;;5094708;28;20024;-66
2021/04/24 02:39:15;;;;;;;2.80;1.10;;;20.40;29.60;;;;;;5094781;28;20082;-67
2021/04/24 02:41:40;;;;;;;1.70;0.85;;;20.40;29.60;;;;;;5094749;28;20039;-68
2021/04/24 02:44:06;;;;;;;3.42;1.10;;;20.40;29.60;;;;;;5094663;28;20024;-68
2021/04/24 02:46:31;;;;;;;1.80;0.85;;;20.40;29.60;;;;;;5094527;28;20071;-66
2021/04/24 02:48:57;;;;;;;3.05;0.95;;;20.40;29.60;;;;;;5094598;28;20074;-66
2021/04/24 02:51:22;;;;;;;4.10;0.93;;;20.40;29.60;;;;;;5094420;28;20412;-66
2021/04/24 02:53:48;;;;;;;3.20;1.10;;;20.40;29.60;;;;;;5094377;28;20051;-68
2021/04/24 02:56:13;;;;;;;2.17;1.00;;;20.40;29.60;;;;;;5094357;28;20032;-66
2021/04/24 02:58:40;;;;;;;3.90;0.88;;;20.40;29.60;;;;;;5092947;28;20055;-66
2021/04/24 03:01:05;;;;;;;5.50;1.30;;;20.40;29.60;;;;;;5094292;28;20074;-66
2021/04/24 03:03:31;;;;;;;2.97;1.02;;;20.40;29.60;;;;;;5094130;28;20036;-66
2021/04/24 03:05:58;;;;;;;2.95;1.20;;;20.40;29.60;;;;;;5092886;28;20062;-66
2021/04/24 03:08:23;;;;;;;3.25;1.10;;;20.40;29.60;;;;;;5094158;28;20024;-66
2021/04/24 03:10:49;;;;;;;2.53;0.93;;;20.40;29.70;;;;;;5092824;28;20027;-66
2021/04/24 03:13:15;;;;;;;2.40;1.23;;;20.40;29.60;;;;;;5094043;28;20111;-66
2021/04/24 03:15:41;;;;;;;3.60;1.15;;;20.40;29.60;;;;;;5094018;28;20468;-66
2021/04/24 03:18:06;;;;;;;2.70;1.00;;;20.30;29.70;;;;;;5093954;28;20035;-65
2021/04/24 03:20:32;;;;;;;2.28;0.95;;;20.40;29.70;;;;;;5092448;28;20422;-65
2021/04/24 03:23:00;;;;;;;3.47;1.20;;;20.40;29.60;;;;;;5093600;28;20062;-66
2021/04/24 03:25:25;;;;;;;2.25;0.95;;;20.30;29.70;;;;;;5093781;28;20016;-66
2021/04/24 03:27:51;;;;;;;2.40;0.98;;;20.30;29.70;;;;;;5094047;28;20028;-66
2021/04/24 03:30:17;;;;;;;2.83;1.13;;;20.30;29.70;;;;;;5093895;28;20457;-66
2021/04/24 03:32:42;;;;;;;4.47;1.20;;;20.30;29.70;;;;;;5093655;28;20062;-66
2021/04/24 03:35:09;;;;;;;2.85;1.00;;;20.30;29.70;;;;;;5093571;28;20063;-66
2021/04/24 03:37:35;;;;;;;2.72;1.05;;;20.30;29.70;;;;;;5093648;28;20031;-67
2021/04/24 03:40:00;;;;;;;4.90;1.20;;;20.30;29.70;;;;;;5093599;28;20375;-67
2021/04/24 03:42:26;;;;;;;5.45;1.13;;;20.40;29.70;;;;;;5093407;28;20040;-67
2021/04/24 03:44:51;;;;;;;1.85;0.80;;;20.30;29.70;;;;;;5092337;28;20051;-66
2021/04/24 03:47:17;;;;;;;2.30;1.00;;;20.30;29.70;;;;;;5093504;28;20032;-67
2021/04/24 03:49:43;;;;;;;2.85;1.05;;;20.30;29.70;;;;;;5092074;28;20421;-67
2021/04/24 03:52:08;;;;;;;2.85;1.20;;;20.30;29.80;;;;;;5092950;28;20105;-67
2021/04/24 03:54:34;;;;;;;2.95;0.93;;;20.30;29.80;;;;;;5093587;28;20024;-67
2021/04/24 03:57:00;;;;;;;4.50;1.00;;;20.30;29.80;;;;;;5093605;28;20125;-67
2021/04/24 03:59:26;;;;;;;3.83;1.20;;;20.30;29.80;;;;;;5093228;28;20028;-67
2021/04/24 04:01:52;;;;;;;3.42;1.10;;;20.30;29.80;;;;;;5093110;28;20040;-66
2021/04/24 04:04:17;;;;;;;3.22;1.33;;;20.30;29.80;;;;;;5091874;28;20020;-66
2021/04/24 04:06:43;;;;;;;2.97;1.05;;;20.30;29.80;;;;;;5093484;28;20028;-67
2021/04/24 04:09:08;;;;;;;3.17;1.02;;;20.30;29.80;;;;;;5091837;28;20392;-67
2021/04/24 04:11:34;;;;;;;3.42;1.20;;;20.30;29.80;;;;;;5091870;28;20070;-67
2021/04/24 04:13:59;;;;;;;2.40;1.00;;;20.30;29.80;;;;;;5091878;28;20058;-67
2021/04/24 04:16:25;;;;;;;3.30;1.17;;;20.30;29.80;;;;;;5093116;28;20034;-67
2021/04/24 04:18:52;;;;;;;2.95;1.30;;;20.30;29.80;;;;;;5092989;28;20050;-66
2021/04/24 04:21:18;;;;;;;4.18;1.30;;;20.30;29.80;;;;;;5092789;28;20073;-67
2021/04/24 04:23:44;;;;;;;3.25;1.02;;;20.40;29.70;;;;;;5093237;28;20049;-66
2021/04/24 04:26:09;;;;;;;2.42;0.90;;;20.40;29.80;;;;;;5093259;28;20349;-66
2021/04/24 04:28:35;;;;;;;3.15;1.23;;;20.40;29.70;;;;;;5093216;28;20024;-66
2021/04/24 04:31:00;;;;;;;3.03;1.20;;;20.40;29.70;;;;;;5092930;28;20460;-66
2021/04/24 04:33:26;;;;;;;3.72;1.08;;;20.40;29.70;;;;;;5092779;28;20476;-66
2021/04/24 04:35:52;;;;;;;2.72;1.17;;;20.40;29.70;;;;;;5092861;28;20035;-67
2021/04/24 04:38:18;;;;;;;3.08;1.02;;;20.50;29.70;;;;;;5092756;28;20360;-66
2021/04/24 04:40:45;;;;;;;2.33;0.63;;;20.50;29.70;;;;;;5092787;28;20024;-66
2021/04/24 04:43:11;;;;;;;2.13;1.00;;;20.50;29.70;;;;;;5091347;28;20509;-66
2021/04/24 04:45:37;;;;;;;4.38;1.20;;;20.50;29.70;;;;;;5092698;28;20051;-66
2021/04/24 04:48:04;;;;;;;2.80;1.27;;;20.50;29.70;;;;;;5092925;28;20456;-66
2021/04/24 04:50:32;;;;;;;2.28;1.02;;;20.50;29.70;;;;;;5092458;28;20413;-67
2021/04/24 04:52:58;;;;;;;2.67;1.27;;;20.50;29.70;;;;;;5092626;28;20463;-67
2021/04/24 04:55:24;;;;;;;3.28;1.10;;;20.50;29.70;;;;;;5092889;28;20034;-67
2021/04/24 04:57:50;;;;;;;1.75;0.85;;;20.50;29.70;;;;;;5092563;28;20422;-67
2021/04/24 05:00:18;;;;;;;2.35;0.90;;;20.50;29.70;;;;;;5092597;28;20020;-66
2021/04/24 05:02:45;;;;;;;4.45;1.35;;;20.60;29.70;;;;;;5092404;28;20058;-67
2021/04/24 05:05:12;;;;;;;2.35;1.00;;;20.50;29.70;;;;;;5095048;28;20056;-67
2021/04/24 05:07:38;;;;;;;3.22;1.08;;;20.50;29.70;;;;;;5096413;28;20384;-66
2021/04/24 05:10:05;;;;;;;3.13;1.30;;;20.60;29.70;;;;;;5096457;28;20028;-66
2021/04/24 05:12:30;;;;;;;2.60;1.00;;;20.60;29.70;;;;;;5096396;28;20028;-66
2021/04/24 05:14:57;;;;;;;2.95;1.40;;;20.60;29.80;;;;;;5096359;28;20065;-67
2021/04/24 05:17:22;;;;;;;3.38;1.17;;;20.60;29.80;;;;;;5096243;28;20028;-66
2021/04/24 05:19:48;;;;;;;3.35;1.25;;;20.50;29.80;;;;;;5096270;28;20027;-67
2021/04/24 05:22:15;;;;;;;3.20;1.20;;;20.60;29.70;;;;;;5095991;28;20040;-66
2021/04/24 05:24:40;;;;;;;3.08;1.10;;;20.60;29.80;;;;;;5096340;28;20027;-67
2021/04/24 05:27:06;;;;;;;4.90;1.10;;;20.60;29.80;;;;;;5096082;28;20345;-66
2021/04/24 05:29:31;;;;;;;4.40;1.20;;;20.60;29.80;;;;;;5096058;28;20105;-67
2021/04/24 05:31:57;;;;;;;2.38;1.25;;;20.60;29.80;;;;;;5095946;28;20031;-66
2021/04/24 05:34:22;;;;;;;2.28;1.10;;;20.60;29.80;;;;;;5094776;28;20056;-66
2021/04/24 05:36:48;;;;;;;3.60;1.40;;;20.60;29.80;;;;;;5095969;28;20030;-67
2021/04/24 05:39:14;;;;;;;3.30;1.17;;;20.60;29.80;;;;;;5095822;28;20382;-67
2021/04/24 05:41:39;;;;;;;3.42;1.33;;;20.60;29.80;;;;;;5095824;28;20028;-67
2021/04/24 05:44:05;;;;;;;4.05;1.40;;;20.60;29.80;;;;;;5094567;28;20025;-66
2021/04/24 05:46:31;;;;;;;3.08;1.17;;;20.60;29.80;;;;;;5095633;28;20487;-66
2021/04/24 05:48:57;;;;;;;2.75;1.23;;;20.60;29.80;;;;;;5095705;28;20468;-66
2021/04/24 05:51:23;;;;;;;2.95;1.08;;;20.60;29.80;;;;;;5095819;28;20028;-67
2021/04/24 05:53:50;;;;;;;2.95;1.30;;;20.60;29.90;;;;;;5095859;28;20111;-67
2021/04/24 05:56:17;;;;;;;3.70;1.20;;;20.70;29.80;;;;;;5095480;28;20521;-67
2021/04/24 05:58:43;;;;;;;3.97;1.67;;;20.60;29.90;;;;;;5095271;28;20035;-67
2021/04/24 06:01:09;;;;;;;3.42;1.17;;;20.70;29.90;;;;;;5095353;28;20023;-66
2021/04/24 06:03:35;;;;;;;2.47;1.20;;;20.70;29.80;;;;;;5095393;28;20066;-66
2021/04/24 06:06:01;;;;;;;2.67;1.20;;;20.70;29.80;;;;;;5095683;28;20059;-67
2021/04/24 06:08:26;;;;;;;4.22;1.80;;;20.70;29.80;;;;;;5095346;28;20467;-67
2021/04/24 06:10:52;;;;;;;4.30;1.30;;;20.70;29.90;;;;;;5095320;28;20433;-66
2021/04/24 06:13:17;;;;;;;2.53;0.90;;;20.70;29.90;;;;;;5095359;28;20103;-66
2021/04/24 06:15:43;;;;;;;4.20;1.42;;;20.70;29.90;;;;;;5094852;28;20069;-66
2021/04/24 06:18:09;;;;;;;3.05;1.30;;;20.70;29.90;;;;;;5095164;28;20449;-67
2021/04/24 06:20:34;;;;;;;4.22;1.50;;;20.70;29.90;;;;;;5095023;28;20095;-67
2021/04/24 06:23:00;;;;;;;2.65;1.40;;;20.70;29.90;;;;;;5094789;28;20135;-66
2021/04/24 06:25:26;;;;;;;3.60;1.63;;;20.70;29.80;;;;;;5095100;28;20565;-66
2021/04/24 06:27:51;;;;;;;4.35;1.42;;;20.70;29.90;;;;;;5094991;28;20039;-67
2021/04/24 06:30:19;;;;;;;2.88;1.27;;;20.80;29.80;;;;;;5094892;28;20063;-67
2021/04/24 06:32:47;;;;;;;3.35;1.15;;;21.10;29.40;;;;;;5094838;28;20059;-67
2021/04/24 06:35:13;;;;;;;5.07;1.40;;;21.20;29.20;;;;;;5094785;28;20460;-67
2021/04/24 06:37:39;;;;;;;2.70;1.00;;;21.10;29.30;;;;;;5094789;28;20077;-66
2021/04/24 06:40:08;;;;;;;3.08;1.13;;;21.00;29.40;;;;;;5094764;28;20058;-67
2021/04/24 06:42:34;;;;;;;4.93;1.17;;;21.00;29.60;;;;;;5094540;28;20040;-66
2021/04/24 06:45:00;;;;;;;2.08;0.90;;;20.90;29.60;;;;;;5094723;28;20173;-67
2021/04/24 06:47:26;;;;;;;3.10;1.20;;;20.80;29.70;;;;;;5094462;28;20387;-67
2021/04/24 06:49:52;;;;;;;2.95;1.10;;;20.90;29.80;;;;;;5094493;28;20020;-66
2021/04/24 06:52:18;;;;;;;3.05;1.20;;;20.80;29.80;;;;;;5094545;28;20031;-66
2021/04/24 06:54:44;;;;;;;2.75;1.23;;;20.80;29.80;;;;;;5094673;28;20024;-66
2021/04/24 06:57:09;;;;;;;4.13;1.48;;;20.80;29.80;;;;;;5094398;28;20024;-67
2021/04/24 06:59:35;;;;;;;4.18;1.25;;;20.80;29.80;;;;;;5094296;28;20028;-67
2021/04/24 07:02:01;;;;;;;3.53;1.38;;;20.80;29.90;;;;;;5094270;28;20411;-67
2021/04/24 07:04:26;;;;;;;2.55;1.30;;;20.80;29.90;;;;;;5094457;28;20023;-67
2021/04/24 07:06:52;;;;;;;3.00;1.30;;;20.80;29.90;;;;;;5094112;28;20028;-67
2021/04/24 07:09:18;;;;;;;4.00;1.40;;;20.80;29.90;;;;;;5094091;28;20020;-67
2021/04/24 07:11:43;;;;;;;2.25;1.15;;;20.80;29.80;;;;;;5093984;28;20016;-67
2021/04/24 07:14:09;;;;;;;2.78;1.08;;;20.80;29.80;;;;;;5092814;28;20099;-67
2021/04/24 07:16:34;;;;;;;3.90;1.40;;;20.80;29.80;;;;;;5092702;28;20028;-67
2021/04/24 07:19:00;;;;;;;2.20;1.10;;;20.90;29.80;;;;;;5092602;28;20024;-68
2021/04/24 07:21:26;;;;;;;3.20;1.38;;;20.90;29.90;;;;;;5093685;28;20059;-66
2021/04/24 07:23:52;;;;;;;2.30;1.08;;;20.90;29.80;;;;;;5093938;28;20391;-66
2021/04/24 07:26:18;;;;;;;2.80;1.13;;;20.90;29.80;;;;;;5093282;28;20020;-66
2021/04/24 07:28:43;;;;;;;2.50;1.40;;;20.90;29.80;;;;;;5093487;28;20016;-67
2021/04/24 07:31:09;;;;;;;3.20;1.35;;;21.00;29.80;;;;;;5093815;28;20028;-67
2021/04/24 07:33:35;;;;;;;2.67;1.10;;;20.90;29.80;;;;;;5094016;28;20027;-68
2021/04/24 07:36:02;;;;;;;2.58;1.05;;;21.00;29.80;;;;;;5093598;28;20020;-67
2021/04/24 07:38:27;;;;;;;3.78;1.30;;;20.90;29.80;;;;;;5093506;28;20475;-66
2021/04/24 07:40:53;;;;;;;4.45;1.20;;;20.90;29.80;;;;;;5093618;28;20049;-66
2021/04/24 07:43:18;;;;;;;3.65;1.30;;;20.90;29.80;;;;;;5092154;28;20038;-66
2021/04/24 07:45:45;;;;;;;5.13;1.13;;;20.90;29.80;;;;;;5093441;28;20060;-67
2021/04/24 07:48:10;;;;;;;2.63;0.95;;;21.00;29.80;;;;;;5093479;28;20058;-67
2021/04/24 07:50:37;;;;;;;3.05;1.27;;;20.90;29.80;;;;;;5093396;28;20055;-66
2021/04/24 07:53:03;;;;;;;2.78;1.20;;;20.90;29.80;;;;;;5093323;28;20494;-67
2021/04/24 07:55:29;;;;;;;3.42;1.75;;;20.90;29.80;;;;;;5091996;28;20035;-66
2021/04/24 07:57:55;;;;;;;3.78;1.20;;;20.90;29.70;;;;;;5093314;28;20508;-67
2021/04/24 08:00:21;;;;;;;2.78;1.13;;;21.00;29.70;;;;;;5093248;28;20103;-69
2021/04/24 08:02:47;;;;;;;4.10;1.23;;;21.00;29.70;;;;;;5093010;28;20039;-67
2021/04/24 08:05:14;;;;;;;3.45;1.02;;;21.00;29.70;;;;;;5093113;28;20036;-67
2021/04/24 08:07:40;;;;;;;4.38;1.20;;;21.00;29.70;;;;;;5093169;28;20088;-69
2021/04/24 08:10:06;;;;;;;3.70;1.20;;;21.00;29.70;;;;;;5092885;28;20495;-67
2021/04/24 08:12:32;;;;;;;4.18;1.30;;;21.00;29.70;;;;;;5093117;28;20028;-67
2021/04/24 08:14:57;;;;;;;3.35;1.25;;;21.00;29.70;;;;;;5092986;28;20020;-68
2021/04/24 08:17:23;;;;;;;2.95;1.05;;;21.00;29.70;;;;;;5093068;28;20024;-67
2021/04/24 08:19:49;;;;;;;3.17;1.13;;;21.00;29.60;;;;;;5093132;28;20116;-67
2021/04/24 08:22:14;;;;;;;2.90;1.15;;;21.00;29.60;;;;;;5092857;28;20040;-67
2021/04/24 08:24:40;;;;;;;2.03;1.02;;;21.10;29.60;;;;;;5093329;28;20099;-68
2021/04/24 08:27:06;;;;;;;3.45;1.20;;;21.10;29.60;;;;;;5093093;28;20073;-67
2021/04/24 08:29:32;;;;;;;3.13;1.10;;;21.10;29.60;;;;;;5093040;28;20091;-68
2021/04/24 08:31:58;;;;;;;4.32;1.38;;;21.10;29.60;;;;;;5092787;28;20525;-69
2021/04/24 08:34:25;;;;;;;3.97;1.20;;;21.10;29.60;;;;;;5092717;28;20020;-67
2021/04/24 08:36:51;;;;;;;1.70;0.82;;;21.10;29.60;;;;;;5091650;28;20024;-68
2021/04/24 08:39:17;;;;;;;3.90;1.10;;;21.10;29.60;;;;;;5095777;28;20107;-67
2021/04/24 08:41:42;;;;;;;2.25;1.00;;;21.20;29.60;;;;;;5096908;28;20102;-66
2021/04/24 08:44:08;;;;;;;3.05;1.20;;;21.10;29.60;;;;;;5096959;28;20486;-67
2021/04/24 08:46:35;;;;;;;2.72;1.40;;;21.10;29.60;;;;;;5096902;28;20024;-66
2021/04/24 08:49:01;;;;;;;4.65;1.23;;;21.10;29.60;;;;;;5096934;28;20132;-66
2021/04/24 08:51:29;;;;;;;3.95;1.25;;;21.10;29.60;;;;;;5096837;28;20024;-68
2021/04/24 08:53:56;;;;;;;4.68;1.33;;;21.10;29.60;;;;;;5095364;28;20023;-67
2021/04/24 08:56:24;;;;;;;1.85;0.90;;;21.10;29.60;;;;;;5096699;28;20043;-67
2021/04/24 08:58:51;;;;;;;3.00;1.27;;;21.10;29.60;;;;;;5096586;28;20023;-68
2021/04/24 09:01:17;;;;;;;3.35;1.23;;;21.10;29.60;;;;;;5096667;28;20476;-68
2021/04/24 09:03:42;;;;;;;1.98;0.88;;;21.10;29.60;;;;;;5095197;28;20039;-67
2021/04/24 09:06:08;;;;;;;2.33;1.05;;;21.10;29.60;;;;;;5096521;28;20056;-67
2021/04/24 09:08:33;;;;;;;2.65;1.10;;;21.10;29.60;;;;;;5096681;28;20032;-67
2021/04/24 09:11:02;;;;;;;2.47;1.00;;;21.10;29.60;;;;;;5095238;28;20020;-68
2021/04/24 09:13:29;;;;;;;3.10;1.13;;;21.10;29.60;;;;;;5096652;28;20027;-68
2021/04/24 09:15:55;;;;;;;3.50;1.33;;;21.10;29.60;;;;;;5096340;28;20467;-68
2021/04/24 09:18:26;;;;;;;2.53;1.08;;;21.10;29.60;;;;;;5096396;28;20528;-68
2021/04/24 09:20:55;;;;;;;2.80;1.10;;;21.10;29.60;;;;;;5096012;28;20035;-67
2021/04/24 09:23:34;;;;;;;2.47;0.93;;;21.10;29.60;;;;;;5096104;28;20494;-67
2021/04/24 09:26:06;;;;;;;1.60;0.75;;;21.10;29.60;;;;;;5096176;28;20024;-67
2021/04/24 09:28:37;;;;;;;2.65;0.88;;;21.10;29.50;;;;;;5096160;28;20016;-66
2021/04/24 09:31:12;;;;;;;3.72;0.95;;;21.10;29.50;;;;;;5096078;28;20475;-67
2021/04/24 09:33:37;;;;;;;3.78;1.02;;;21.10;29.60;;;;;;5095843;28;20035;-66
2021/04/24 09:36:05;;;;;;;2.80;1.08;;;21.10;29.50;;;;;;5094332;28;20024;-67
2021/04/24 09:38:35;;;;;;;3.47;1.25;;;21.10;29.60;;;;;;5095859;28;20504;-67
2021/04/24 09:41:11;;;;;;;1.83;1.10;;;21.10;29.50;;;;;;5094620;28;20111;-66
2021/04/24 09:43:56;;;;;;;1.92;1.00;;;21.10;29.50;;;;;;5094403;28;20028;-67
2021/04/24 09:46:28;;;;;;;3.28;1.00;;;21.10;29.60;;;;;;5095660;28;20050;-68
2021/04/24 09:49:17;;;;;;;2.65;1.10;;;21.10;29.50;;;;;;5095709;28;20060;-67
2021/04/24 09:51:54;;;;;;;3.30;1.40;;;21.20;29.50;;;;;;5095018;28;20028;-67
2021/04/24 09:54:22;;;;;;;2.60;1.10;;;21.20;29.50;;;;;;5095536;28;20024;-67
2021/04/24 09:57:09;;;;;;;3.15;1.27;;;21.20;29.40;;;;;;5095963;28;20039;-67
2021/04/24 10:00:00;;;;;;;2.88;1.02;;;21.20;29.40;;;;;;5097157;28;20020;-67
2021/04/24 10:02:44;;;;;;;4.57;1.20;;;21.20;29.50;;;;;;5097516;28;20115;-68
2021/04/24 10:05:19;;;;;;;2.70;0.98;;;21.10;29.40;;;;;;5097149;28;20088;-68
2021/04/24 10:07:56;;;;;;;1.38;0.68;;;21.20;29.40;;;;;;5104325;28;20056;-67
2021/04/24 10:10:30;;;;;;;2.35;1.02;;;21.20;29.40;;;;;;5096428;28;20381;-67
2021/04/24 10:13:01;;;;;;;2.25;1.00;;;21.20;29.40;;;;;;5096190;28;20099;-66
2021/04/24 10:15:47;;;;;;;6.55;1.30;;;21.20;29.40;;;;;;5096166;28;20028;-67
2021/04/24 10:18:14;;;;;;;2.83;1.02;;;21.20;29.30;;;;;;5096155;28;20115;-67
2021/04/24 10:20:43;;;;;;;2.70;0.98;;;21.20;29.50;;;;;;5095940;28;20020;-67
2021/04/24 10:23:10;;;;;;;1.95;1.10;;;21.20;29.30;;;;;;5095872;28;20494;-67
2021/04/24 10:25:37;;;;;;;4.47;1.00;;;21.30;29.40;;;;;;5095917;28;20031;-66
2021/04/24 10:28:03;;;;;;;1.77;0.80;;;21.20;29.30;;;;;;5095708;28;20024;-67
2021/04/24 10:30:29;;;;;;;1.83;0.77;;;21.30;29.40;;;;;;5095354;28;20043;-67
2021/04/24 10:32:55;;;;;;;1.83;0.73;;;21.30;29.30;;;;;;5095168;28;20471;-66
2021/04/24 10:35:22;;;;;;;2.72;0.90;;;21.30;29.30;;;;;;5095350;28;20020;-67
2021/04/24 10:37:53;;;;;;;2.38;1.20;;;21.30;29.30;;;;;;5095356;28;20020;-67
2021/04/24 10:40:20;;;;;;;1.42;0.80;;;21.30;29.30;;;;;;5095343;28;20032;-67
2021/04/24 10:42:54;;;;;;;2.17;0.85;;;21.40;29.30;;;;;;5095057;28;20081;-67
2021/04/24 10:45:30;;;;;;;9.25;1.00;;;21.40;29.20;;;;;;5093855;28;20063;-67
2021/04/24 10:47:56;;;;;;;2.08;0.90;;;21.40;29.20;;;;;;5095349;28;20031;-67
2021/04/24 10:50:47;;;;;;;2.80;0.88;;;21.40;29.20;;;;;;5095327;28;20035;-67
2021/04/24 10:53:39;;;;;;;4.78;1.20;;;21.50;29.20;;;;;;5094754;28;20039;-67
2021/04/24 10:56:05;;;;;;;2.28;0.90;;;21.50;29.10;;;;;;5091785;28;20074;-67
2021/04/24 10:58:32;;;;;;;3.85;0.90;;;21.50;29.10;;;;;;5095037;28;20073;-67
2021/04/24 11:01:06;;;;;;;2.15;0.90;;;21.50;29.10;;;;;;5094518;28;20031;-67
2021/04/24 11:03:35;;;;;;;;;;;21.50;29.10;;;;;;5094659;28;20394;-67
2021/04/24 11:06:10;;;;;;;1.95;0.80;;;21.50;29.10;;;;;;5095127;28;20421;-67
2021/04/24 11:08:37;;;;;;;2.15;0.95;;;21.50;29.10;;;;;;5094921;28;20032;-66
2021/04/24 11:11:04;;;;;;;3.47;1.13;;;21.50;29.10;;;;;;5094626;28;20107;-67
2021/04/24 11:13:39;;;;;;;2.05;0.90;;;21.50;29.10;;;;;;5094915;28;20027;-67
2021/04/24 11:16:09;;;;;;;1.65;0.85;;;21.50;29.10;;;;;;5094803;28;20016;-67
2021/04/24 11:18:36;;;;;;;3.03;1.08;;;21.50;29.10;;;;;;5094623;28;20055;-67
2021/04/24 11:21:18;;;;;;;1.45;0.68;;;21.50;29.10;;;;;;5094458;28;20099;-67
2021/04/24 11:23:44;;;;;;;2.33;1.10;;;21.50;29.00;;;;;;5094603;28;20058;-67
2021/04/24 11:26:18;;;;;;;3.13;0.90;;;21.60;29.00;;;;;;5094117;28;20127;-67
2021/04/24 11:29:13;;;;;;;2.05;0.93;;;21.60;29.00;;;;;;5092820;28;20420;-67
2021/04/24 11:31:54;;;;;;;3.40;1.25;;;21.60;29.00;;;;;;5094150;28;20028;-66
2021/04/24 11:34:30;;;;;;;1.67;0.90;;;21.60;28.90;;;;;;5094444;28;20043;-68
2021/04/24 11:37:11;;;;;;;2.40;0.85;;;21.70;28.90;;;;;;5094560;28;20554;-68
2021/04/24 11:39:37;;;;;;;1.63;0.85;;;21.70;28.90;;;;;;5094459;28;20020;-68
2021/04/24 11:42:29;;;;;;;3.13;1.17;;;21.70;28.90;;;;;;5094028;28;20036;-66
2021/04/24 11:44:55;;;;;;;3.15;1.05;;;21.70;28.90;;;;;;5093834;28;20027;-66
2021/04/24 11:47:39;;;;;;;3.40;1.25;;;21.80;28.70;;;;;;5094315;28;20032;-66
2021/04/24 11:50:06;;;;;;;4.15;0.90;;;21.80;28.70;;;;;;5093780;28;20056;-66
2021/04/24 11:52:31;;;;;;;1.42;0.63;;;21.90;28.70;;;;;;5093806;28;20020;-66
2021/04/24 11:54:57;;;;;;;1.92;0.80;;;21.90;28.70;;;;;;5093857;28;20027;-67
2021/04/24 11:57:23;;;;;;;1.98;0.90;;;22.00;28.70;;;;;;5093574;28;20024;-68
2021/04/24 11:59:49;;;;;;;2.30;0.90;;;22.00;28.60;;;;;;5093663;28;20023;-67
2021/04/24 12:02:21;;;;;;;2.35;0.90;;;22.00;28.60;;;;;;5094053;28;20028;-68
2021/04/24 12:04:50;;;;;;;2.00;0.90;;;22.00;28.60;;;;;;5093938;28;20026;-67
2021/04/24 12:07:17;;;;;;;1.67;0.90;;;22.00;28.60;;;;;;5093536;28;20016;-67
2021/04/24 12:10:01;;;;;;;2.35;0.77;;;22.00;28.60;;;;;;5093535;28;20024;-67
2021/04/24 12:12:34;;;;;;;3.00;0.90;;;22.00;28.60;;;;;;5093456;28;20028;-67
2021/04/24 12:15:10;;;;;;;2.00;0.80;;;22.00;28.70;;;;;;5093703;28;20020;-67
2021/04/24 12:17:56;;;;;;;2.28;0.82;;;22.00;28.70;;;;;;5093386;28;20016;-67
2021/04/24 12:20:29;;;;;;;3.20;1.60;;;22.00;28.70;;;;;;5093248;28;20476;-66
2021/04/24 12:23:01;;;;;;;1.80;0.80;;;22.00;28.60;;;;;;5092942;28;20051;-68
2021/04/24 12:25:29;;;;;;;1.30;0.80;;;22.00;28.70;;;;;;5093479;28;20048;-68
2021/04/24 12:27:57;;;;;;;4.38;1.05;;;22.10;28.70;;;;;;5093366;28;20111;-70
2021/04/24 12:30:25;;;;;;;1.45;0.80;;;22.10;28.60;;;;;;5093434;28;20040;-66
2021/04/24 12:33:09;;;;;;;1.92;0.90;;;22.10;28.60;;;;;;5093258;28;20028;-66
2021/04/24 12:35:41;;;;;;;3.92;1.17;;;22.10;28.50;;;;;;5093576;28;20030;-67
2021/04/24 12:38:10;;;;;;;2.35;1.02;;;22.20;28.40;;;;;;5093232;28;20115;-68
2021/04/24 12:40:38;;;;;;;1.17;0.52;;;22.30;28.40;;;;;;5093108;28;20444;-67
2021/04/24 12:43:09;;;;;;;1.48;0.73;;;22.30;28.30;;;;;;5093237;28;20036;-66
2021/04/24 12:45:37;;;;;;;2.53;1.13;;;22.40;28.30;;;;;;5093224;28;20045;-67
2021/04/24 12:48:04;;;;;;;2.72;0.90;;;22.40;28.20;;;;;;5093025;28;20379;-66
2021/04/24 12:50:41;;;;;;;1.38;0.85;;;22.40;28.30;;;;;;5093308;28;20031;-66
2021/04/24 12:53:29;;;;;;;2.22;0.80;;;22.40;28.20;;;;;;5093172;28;20024;-67